Home   Weather   USA   Adak   Past weeks
Flag for USA

Past Weather in Adak, Alaska, USA — Yesterday and Last 2 Weeks

Currently: 42 °F. Partly sunny. (Weather station: Adak, USA). See more current weather

Past Weather in Adak — Graph

°F

Adak Temperature Yesterday

Maximum temperature yesterday: 46 °F (at 1:34 pm)
Minimum temperature yesterday: 41 °F (at 12:24 am)
Average temperature yesterday: 43 °F

High & Low Weather Summary for the Past Weeks

 TemperatureHumidityPressure
High49 °F (May 18, 3:56 pm)100% (May 11, 7:03 pm)30.44 "Hg (May 11, 7:03 pm)
Low30 °F (May 18, 6:56 am)55% (May 7, 5:56 pm)29.08 "Hg (May 9, 9:29 am)
Average40 °F85%29.91 "Hg
* Reported May 5 8:56 am — May 20 8:56 am, Adak. Weather by CustomWeather, © 2024

Note: Actual official high and low records may vary slightly from our data, if they occured in-between our weather recording intervals... More about our weather records

Adak Weather History for the Previous 24 Hours

Scroll right to see more
 ConditionsComfort  
Time TempWeatherWind HumidityBarometerVisibility
8:56 am
Mon, May 20
42 °FPartly sunny.18 mph85%29.67 "Hg10 mi
7:56 am41 °FSunny.17 mph89%29.69 "Hg7 mi
7:32 am39 °FScattered clouds.24 mph93%29.69 "Hg8 mi
6:56 am39 °FOvercast.21 mph93%29.69 "Hg8 mi
5:56 am39 °FOvercast.14 mph93%29.70 "Hg8 mi
4:56 am39 °FOvercast.16 mph93%29.70 "Hg10 mi
4:13 am37 °FPassing clouds.16 mph100%29.70 "Hg10 mi
3:56 am39 °FPassing clouds.17 mph93%29.70 "Hg10 mi
3:24 am39 °FOvercast.13 mph93%29.70 "Hg10 mi
2:56 am40 °FOvercast.15 mph93%29.70 "Hg10 mi
2:27 am39 °FOvercast.16 mph93%29.70 "Hg10 mi
2:20 am39 °FOvercast.15 mph93%29.69 "Hg10 mi
1:56 am40 °FLight rain. Fog.23 mph93%29.68 "Hg5 mi
1:38 am39 °FLow clouds.22 mph93%29.68 "Hg10 mi
1:19 am39 °FLight rain. Mostly cloudy.26 mph100%29.66 "Hg9 mi
12:44 am39 °FOvercast.29 mph100%29.66 "Hg10 mi
11:56 pm
Sun, May 19
42 °FLight rain. Fog.23 mph96%29.67 "Hg3 mi
11:40 pm43 °FLight rain. Fog.26 mph93%29.67 "Hg2 mi
10:56 pm42 °FLight rain. Fog.23 mph96%29.66 "Hg2 mi
9:56 pm42 °FLow clouds.12 mph96%29.66 "Hg10 mi
8:58 pm43 °FMostly cloudy.18 mph87%29.70 "Hg10 mi
8:06 pm43 °FBroken clouds.24 mph87%29.71 "Hg10 mi
7:56 pm42 °FPartly sunny.23 mph96%29.71 "Hg10 mi
7:36 pm43 °FPartly sunny.26 mph87%29.71 "Hg10 mi
7:23 pm43 °FScattered clouds.33 mph93%29.71 "Hg10 mi
6:56 pm42 °FOvercast.17 mph92%29.72 "Hg10 mi
5:56 pm42 °FLight rain. Low clouds.18 mph92%29.72 "Hg10 mi
5:18 pm43 °FMore clouds than sun.23 mph87%29.74 "Hg10 mi
4:56 pm42 °FLow clouds.23 mph96%29.75 "Hg10 mi
4:09 pm45 °FPartly sunny.24 mph87%29.76 "Hg10 mi
3:56 pm44 °FPartly sunny.21 mph89%29.76 "Hg10 mi
2:56 pm45 °FLow clouds.21 mph90%29.78 "Hg10 mi
2:43 pm45 °FLow clouds.18 mph93%29.79 "Hg10 mi
2:09 pm45 °FLow clouds.21 mph93%29.79 "Hg10 mi
1:34 pm46 °FLow clouds.16 mph93%29.78 "Hg10 mi
12:56 pm44 °FLow clouds.22 mph96%29.78 "Hg10 mi
11:56 am44 °FLow clouds.20 mph96%29.79 "Hg10 mi
10:56 am43 °FLow clouds.10 mph97%29.79 "Hg10 mi
Weather by CustomWeather, © 2024

See weather overview